Time;durP1;ratioP1;P1;durP2;ratioP2;P2;SDS_P1;SDS_P2;PMS_P1;PMS_P2;Temp;Humidity;BMP_temperature;BMP_pressure;BME280_temperature;BME280_humidity;BME280_pressure;Samples;Min_cycle;Max_cycle;Signal;HPM_P1;HPM_P2
2021/08/08 00:00:28;;;;;;;6.20;5.07;;;;;;;15.75;82.43;100163.06;4969138;28;20723;-71
2021/08/08 00:02:55;;;;;;;5.73;4.50;;;;;;;15.44;83.37;100159.59;4970507;28;20695;-71
2021/08/08 00:05:22;;;;;;;6.40;4.83;;;;;;;15.51;83.33;100159.31;4968731;28;20225;-71
2021/08/08 00:07:49;;;;;;;5.13;4.63;;;;;;;15.62;83.30;100162.81;4968823;28;20291;-71
2021/08/08 00:10:15;;;;;;;5.40;4.90;;;;;;;15.81;82.83;100175.44;4968925;28;20240;-71
2021/08/08 00:12:42;;;;;;;5.53;4.83;;;;;;;15.91;82.11;100168.41;4969261;28;20669;-71
2021/08/08 00:15:11;;;;;;;8.17;5.33;;;;;;;15.89;81.66;100166.78;4970828;28;20225;-71
2021/08/08 00:17:38;;;;;;;8.50;5.70;;;;;;;15.75;83.33;100164.94;4969901;28;20306;-72
2021/08/08 00:20:07;;;;;;;6.63;5.93;;;;;;;15.78;83.40;100156.31;4968978;28;20589;-72
2021/08/08 00:22:34;;;;;;;8.60;6.50;;;;;;;15.79;83.70;100153.34;4966048;28;20422;-71
2021/08/08 00:25:01;;;;;;;9.47;7.23;;;;;;;15.94;83.18;100149.00;4965632;28;20220;-71
2021/08/08 00:27:27;;;;;;;7.50;6.80;;;;;;;15.95;83.02;100153.28;4970100;28;20221;-70
2021/08/08 00:29:53;;;;;;;6.93;6.23;;;;;;;16.10;82.06;100156.72;4969527;28;20218;-70
2021/08/08 00:32:20;;;;;;;8.80;7.00;;;;;;;15.73;83.35;100150.94;4966681;28;20220;-70
2021/08/08 00:34:46;;;;;;;7.87;7.07;;;;;;;15.72;84.47;100152.00;4968186;28;20259;-70
2021/08/08 00:37:14;;;;;;;8.50;7.60;;;;;;;15.77;83.91;100150.13;4968630;28;20248;-71
2021/08/08 00:39:40;;;;;;;8.80;7.90;;;;;;;15.58;84.11;100149.84;4968686;28;20213;-71
2021/08/08 00:42:06;;;;;;;8.27;7.37;;;;;;;15.45;84.63;100136.97;4970064;28;20261;-71
2021/08/08 00:44:33;;;;;;;11.20;9.13;;;;;;;15.66;84.84;100143.16;4969702;28;20710;-71
2021/08/08 00:46:59;;;;;;;11.57;9.20;;;;;;;15.65;84.12;100135.34;4969921;28;20331;-71
2021/08/08 00:49:26;;;;;;;9.80;8.80;;;;;;;15.73;84.21;100140.16;4968979;28;20626;-71
2021/08/08 00:51:52;;;;;;;10.53;8.90;;;;;;;15.77;84.11;100135.84;4967459;28;20693;-71
2021/08/08 00:54:20;;;;;;;10.80;9.50;;;;;;;15.72;84.43;100143.94;4967868;28;20218;-72
2021/08/08 00:56:46;;;;;;;11.93;10.73;;;;;;;15.86;83.94;100142.28;4965916;28;20257;-72
2021/08/08 00:59:13;;;;;;;12.83;11.33;;;;;;;16.02;83.60;100143.03;4968706;28;20244;-71
2021/08/08 01:01:42;;;;;;;11.53;10.37;;;;;;;15.89;83.78;100139.06;4965536;28;20268;-71
2021/08/08 01:04:09;;;;;;;12.87;11.00;;;;;;;15.83;84.26;100149.03;4968722;28;20235;-71
2021/08/08 01:06:40;;;;;;;12.13;10.80;;;;;;;16.00;83.60;100154.06;4966480;28;20230;-72
2021/08/08 01:09:09;;;;;;;12.53;11.17;;;;;;;15.94;83.77;100152.50;4965561;28;20214;-71
2021/08/08 01:11:38;;;;;;;12.40;11.27;;;;;;;15.87;84.06;100143.88;4966308;28;20272;-71
2021/08/08 01:14:05;;;;;;;12.53;11.33;;;;;;;15.78;84.54;100153.63;4970162;28;20217;-71
2021/08/08 01:16:32;;;;;;;14.30;12.27;;;;;;;15.82;84.64;100141.22;4971309;28;20743;-71
2021/08/08 01:18:59;;;;;;;12.83;11.73;;;;;;;15.80;84.93;100154.97;4972080;28;20347;-71
2021/08/08 01:21:27;;;;;;;15.50;12.50;;;;;;;15.86;84.79;100158.44;4971975;28;20369;-71
2021/08/08 01:23:56;;;;;;;14.20;12.80;;;;;;;15.81;85.22;100153.88;4969805;28;20277;-71
2021/08/08 01:26:23;;;;;;;13.30;11.87;;;;;;;15.68;85.10;100151.75;4970735;28;20213;-71
2021/08/08 01:28:50;;;;;;;13.70;12.30;;;;;;;15.83;84.99;100156.28;4972181;28;20221;-70
2021/08/08 01:31:16;;;;;;;12.93;11.50;;;;;;;15.93;84.45;100155.47;4972253;28;20225;-70
2021/08/08 01:33:43;;;;;;;13.90;12.60;;;;;;;15.85;84.91;100156.81;4969938;28;20284;-71
2021/08/08 01:36:09;;;;;;;13.87;12.53;;;;;;;15.85;84.56;100148.75;4971539;28;20269;-71
2021/08/08 01:38:37;;;;;;;13.67;12.20;;;;;;;15.87;84.38;100152.75;4970893;28;20688;-71
2021/08/08 01:41:07;;;;;;;12.83;11.63;;;;;;;15.81;84.73;100161.97;4971510;28;20220;-71
2021/08/08 01:43:34;;;;;;;12.90;11.70;;;;;;;15.77;84.95;100155.50;4969908;28;20268;-71
2021/08/08 01:46:06;;;;;;;14.93;12.07;;;;;;;15.96;84.60;100157.59;4970276;28;20217;-71
2021/08/08 01:48:34;;;;;;;14.53;11.93;;;;;;;16.12;83.79;100167.22;4974488;28;20233;-71
2021/08/08 01:51:01;;;;;;;13.93;12.53;;;;;;;16.20;83.62;100180.16;4972302;28;20526;-71
2021/08/08 01:53:27;;;;;;;13.53;11.70;;;;;;;16.35;82.84;100176.56;4969252;28;20300;-71
2021/08/08 01:55:54;;;;;;;14.87;13.37;;;;;;;16.61;81.90;100174.53;4971238;28;20286;-71
2021/08/08 01:58:27;;;;;;;15.70;12.57;;;;;;;16.45;82.08;100176.53;4972446;28;20252;-71
2021/08/08 02:00:53;;;;;;;14.77;13.03;;;;;;;16.39;82.57;100181.16;4971050;28;20767;-71
2021/08/08 02:03:20;;;;;;;12.97;11.00;;;;;;;16.18;82.67;100183.13;4969438;28;20217;-71
2021/08/08 02:05:46;;;;;;;14.00;11.40;;;;;;;16.36;82.49;100186.28;4972226;28;20225;-71
2021/08/08 02:08:12;;;;;;;13.67;12.27;;;;;;;16.21;82.89;100187.16;4967992;28;20213;-71
2021/08/08 02:10:39;;;;;;;15.53;11.97;;;;;;;16.15;82.97;100197.16;4971753;28;20279;-70
2021/08/08 02:13:05;;;;;;;12.17;10.93;;;;;;;16.15;83.52;100199.03;4973058;28;20222;-71
2021/08/08 02:15:33;;;;;;;13.70;11.10;;;;;;;16.30;82.89;100201.66;4969954;28;20220;-70
2021/08/08 02:17:59;;;;;;;15.03;12.07;;;;;;;16.31;82.78;100195.19;4969495;28;20308;-71
2021/08/08 02:20:26;;;;;;;12.87;10.93;;;;;;;16.38;82.40;100202.97;4971143;28;20229;-71
2021/08/08 02:22:52;;;;;;;13.53;11.93;;;;;;;16.25;82.85;100208.97;4969617;28;20226;-71
2021/08/08 02:25:18;;;;;;;16.63;12.30;;;;;;;16.31;82.78;100207.88;4972951;28;20308;-71
2021/08/08 02:27:45;;;;;;;17.73;12.63;;;;;;;16.22;83.29;100213.00;4970922;28;20264;-71
2021/08/08 02:30:12;;;;;;;15.70;12.07;;;;;;;16.05;83.72;100209.84;4971086;28;20218;-71
2021/08/08 02:32:39;;;;;;;16.03;12.03;;;;;;;16.01;84.06;100225.78;4968536;28;20251;-71
2021/08/08 02:35:07;;;;;;;15.67;12.83;;;;;;;16.07;83.93;100224.66;4966862;28;20291;-70
2021/08/08 02:37:33;;;;;;;17.33;12.37;;;;;;;16.02;84.01;100227.38;4971294;28;20245;-70
2021/08/08 02:39:59;;;;;;;17.43;12.67;;;;;;;15.87;84.56;100219.31;4970413;28;20280;-70
2021/08/08 02:42:26;;;;;;;17.77;12.33;;;;;;;15.91;84.57;100225.78;4969182;28;20233;-71
2021/08/08 02:44:52;;;;;;;18.47;11.67;;;;;;;15.93;84.37;100238.97;4969856;28;20212;-71
2021/08/08 02:47:19;;;;;;;14.40;12.57;;;;;;;15.91;84.96;100241.94;4969922;28;20221;-70
2021/08/08 02:49:46;;;;;;;16.57;13.13;;;;;;;15.96;84.89;100243.81;4968132;28;20230;-70
2021/08/08 02:52:13;;;;;;;15.63;13.57;;;;;;;15.97;84.70;100240.84;4971582;28;20229;-70
2021/08/08 02:54:39;;;;;;;17.47;12.43;;;;;;;15.95;84.99;100252.97;4968841;28;20502;-71
2021/08/08 02:57:06;;;;;;;15.73;13.03;;;;;;;15.93;85.49;100253.25;4970134;28;20256;-71
2021/08/08 02:59:33;;;;;;;17.97;13.37;;;;;;;16.01;85.14;100257.28;4969804;28;20672;-71
2021/08/08 03:02:00;;;;;;;16.00;13.83;;;;;;;16.11;85.18;100263.44;4970811;28;20689;-70
2021/08/08 03:04:26;;;;;;;21.50;14.27;;;;;;;16.28;84.08;100262.34;4971820;28;20236;-71
2021/08/08 03:06:54;;;;;;;18.70;14.63;;;;;;;16.08;85.25;100265.88;4971638;28;20222;-71
2021/08/08 03:09:21;;;;;;;18.97;14.33;;;;;;;16.06;85.51;100260.78;4969229;28;21120;-72
2021/08/08 03:11:47;;;;;;;18.33;13.20;;;;;;;15.95;85.55;100269.16;4970263;28;20292;-71
2021/08/08 03:14:14;;;;;;;16.77;12.63;;;;;;;15.91;86.22;100260.81;4969905;28;20220;-70
2021/08/08 03:16:41;;;;;;;13.80;12.20;;;;;;;15.92;85.77;100256.22;4969788;28;20245;-70
2021/08/08 03:19:07;;;;;;;13.47;12.07;;;;;;;15.94;85.77;100256.75;4967311;28;20230;-70
2021/08/08 03:21:33;;;;;;;14.27;12.73;;;;;;;16.02;85.71;100277.78;4968986;28;20303;-71
2021/08/08 03:24:01;;;;;;;16.33;11.93;;;;;;;15.94;85.88;100281.00;4970060;28;21097;-71
2021/08/08 03:26:28;;;;;;;12.13;10.63;;;;;;;15.98;85.81;100284.75;4967025;28;20312;-71
2021/08/08 03:28:54;;;;;;;11.97;10.07;;;;;;;16.02;85.52;100275.88;4966891;28;20751;-71
2021/08/08 03:31:20;;;;;;;11.87;9.67;;;;;;;16.11;84.96;100278.81;4968759;28;20221;-71
2021/08/08 03:33:47;;;;;;;10.67;9.37;;;;;;;15.99;85.51;100273.72;4967312;28;20256;-70
2021/08/08 03:36:13;;;;;;;10.97;8.90;;;;;;;15.93;85.70;100282.09;4966494;28;20229;-70
2021/08/08 03:38:39;;;;;;;33.50;12.57;;;;;;;16.33;85.05;100281.19;4965854;28;20295;-71
2021/08/08 03:41:07;;;;;;;12.63;9.47;;;;;;;16.31;84.67;100283.34;4967440;28;20264;-69
2021/08/08 03:43:34;;;;;;;12.90;10.30;;;;;;;16.23;84.35;100289.28;4965956;28;20224;-71
2021/08/08 03:46:02;;;;;;;10.00;8.93;;;;;;;16.37;84.55;100290.34;4969759;28;20268;-69
2021/08/08 03:48:28;;;;;;;12.60;9.37;;;;;;;16.43;83.82;100291.94;4971608;28;20229;-70
2021/08/08 03:50:55;;;;;;;14.97;9.70;;;;;;;16.53;83.93;100299.19;4970108;28;20218;-70
2021/08/08 03:53:21;;;;;;;11.93;9.30;;;;;;;16.27;84.42;100295.78;4967564;28;20288;-70
2021/08/08 03:55:47;;;;;;;10.47;9.40;;;;;;;16.46;84.13;100302.97;4967289;28;20264;-70
2021/08/08 03:58:15;;;;;;;11.97;9.53;;;;;;;16.45;84.16;100301.38;4967943;28;20319;-70
2021/08/08 04:00:41;;;;;;;16.23;10.53;;;;;;;16.32;84.46;100306.53;4965925;28;20216;-71
2021/08/08 04:03:08;;;;;;;17.53;10.20;;;;;;;16.21;85.08;100308.44;4965966;28;20212;-71
2021/08/08 04:05:35;;;;;;;15.87;10.10;;;;;;;16.07;85.30;100318.16;4967559;28;20234;-70
2021/08/08 04:08:02;;;;;;;24.20;10.73;;;;;;;16.14;85.73;100313.31;4967381;28;20217;-71
2021/08/08 04:10:28;;;;;;;18.43;11.53;;;;;;;16.12;85.74;100324.34;4966135;28;20218;-72
2021/08/08 04:12:54;;;;;;;18.93;10.00;;;;;;;15.99;85.61;100324.09;4968242;28;20263;-72
2021/08/08 04:15:22;;;;;;;14.93;9.87;;;;;;;16.11;85.21;100335.41;4967649;28;20217;-72
2021/08/08 04:17:49;;;;;;;15.40;10.13;;;;;;;16.01;85.47;100340.84;4966619;28;20229;-72
2021/08/08 04:20:15;;;;;;;11.10;8.23;;;;;;;15.91;85.45;100341.63;4966440;28;20229;-72
2021/08/08 04:22:41;;;;;;;13.57;8.73;;;;;;;15.79;85.83;100355.38;4966308;28;20257;-72
2021/08/08 04:25:08;;;;;;;15.30;8.67;;;;;;;15.85;85.87;100345.41;4967788;28;20206;-71
2021/08/08 04:27:35;;;;;;;12.33;9.00;;;;;;;15.76;86.04;100360.50;4966664;28;20209;-72
2021/08/08 04:30:01;;;;;;;14.33;8.30;;;;;;;15.77;86.26;100357.53;4967542;28;20214;-71
2021/08/08 04:32:29;;;;;;;14.15;10.57;;;;;;;15.74;86.19;100360.75;4971097;28;20994;-77
2021/08/08 04:34:55;;;;;;;16.97;10.10;;;;;;;15.73;86.73;100358.31;4976124;28;20224;-77
2021/08/08 04:37:22;;;;;;;13.27;9.10;;;;;;;15.83;86.37;100364.53;4974724;28;20217;-77
2021/08/08 04:39:49;;;;;;;14.83;9.13;;;;;;;15.83;85.96;100367.22;4976114;28;20210;-75
2021/08/08 04:42:16;;;;;;;14.27;9.03;;;;;;;15.90;85.88;100369.66;4978480;28;20214;-76
2021/08/08 04:44:43;;;;;;;16.97;10.67;;;;;;;16.12;85.14;100372.84;4970537;28;20201;-77
2021/08/08 04:47:09;;;;;;;13.70;10.03;;;;;;;16.16;85.13;100373.97;4967439;28;20225;-77
2021/08/08 04:49:37;;;;;;;17.43;11.20;;;;;;;16.25;84.67;100374.19;4968971;28;20233;-77
2021/08/08 04:52:04;;;;;;;16.87;10.17;;;;;;;16.16;84.65;100375.84;4969001;28;20241;-77
2021/08/08 04:54:31;;;;;;;12.00;9.63;;;;;;;15.93;85.15;100382.59;4971697;28;20210;-78
2021/08/08 04:56:58;;;;;;;15.77;10.17;;;;;;;15.99;85.10;100381.50;4968972;28;20264;-78
2021/08/08 04:59:24;;;;;;;17.67;12.03;;;;;;;16.15;84.51;100382.31;4969313;28;20244;-79
2021/08/08 05:01:51;;;;;;;20.67;11.10;;;;;;;15.93;84.92;100387.16;4972103;28;20213;-79
2021/08/08 05:04:17;;;;;;;17.87;11.97;;;;;;;16.04;85.13;100384.19;4974674;28;20236;-79
2021/08/08 05:06:45;;;;;;;20.27;11.27;;;;;;;15.92;85.06;100391.75;4973444;28;20213;-78
2021/08/08 05:09:12;;;;;;;24.73;10.90;;;;;;;15.78;85.52;100396.84;4976610;28;20231;-78
2021/08/08 05:11:40;;;;;;;21.90;12.40;;;;;;;15.89;85.08;100392.28;4978224;28;20248;-78
2021/08/08 05:14:06;;;;;;;25.37;12.43;;;;;;;15.96;84.42;100405.47;4975449;28;20220;-78
2021/08/08 05:16:33;;;;;;;22.43;11.33;;;;;;;15.91;84.29;100402.78;4972064;28;20571;-78
2021/08/08 05:18:59;;;;;;;20.27;11.13;;;;;;;15.77;84.38;100399.81;4971563;28;20253;-78
2021/08/08 05:21:26;;;;;;;22.37;11.00;;;;;;;15.59;85.17;100409.16;4975550;28;20219;-78
2021/08/08 05:23:53;;;;;;;18.07;10.10;;;;;;;15.61;85.07;100409.75;4972431;28;20222;-78
2021/08/08 05:26:20;;;;;;;16.27;10.10;;;;;;;15.69;84.83;100405.72;4973566;28;20289;-77
2021/08/08 05:28:46;;;;;;;17.60;9.67;;;;;;;15.60;84.54;100417.00;4972564;28;20661;-78
2021/08/08 05:31:12;;;;;;;20.00;10.20;;;;;;;15.65;84.98;100415.44;4971550;28;20748;-78
2021/08/08 05:33:39;;;;;;;17.47;10.00;;;;;;;15.80;84.20;100427.03;4971133;28;20228;-78
2021/08/08 05:36:05;;;;;;;18.27;11.30;;;;;;;15.83;84.26;100422.97;4971546;28;20214;-78
2021/08/08 05:38:32;;;;;;;14.67;10.13;;;;;;;15.86;84.24;100425.13;4971875;28;20232;-78
2021/08/08 05:41:00;;;;;;;18.30;10.60;;;;;;;15.98;83.39;100433.78;4971931;28;20214;-78
2021/08/08 05:43:26;;;;;;;17.03;10.07;;;;;;;16.02;83.42;100425.97;4970470;28;20327;-78
2021/08/08 05:45:52;;;;;;;18.67;9.93;;;;;;;16.07;83.00;100425.97;4969259;28;20213;-77
2021/08/08 05:48:19;;;;;;;21.40;10.13;;;;;;;16.02;83.16;100440.25;4970157;28;20221;-77
2021/08/08 05:50:45;;;;;;;15.83;9.97;;;;;;;16.15;83.23;100438.91;4973189;28;20212;-78
2021/08/08 05:53:12;;;;;;;14.93;9.10;;;;;;;16.23;82.85;100437.56;4968593;28;20267;-78
2021/08/08 05:55:42;;;;;;;16.20;9.37;;;;;;;16.00;83.02;100444.28;4970777;28;20277;-77
2021/08/08 05:58:09;;;;;;;16.10;9.57;;;;;;;16.06;83.46;100443.22;4967293;28;20272;-78
2021/08/08 06:00:36;;;;;;;17.70;9.73;;;;;;;16.20;83.02;100449.69;4970020;28;20857;-78
2021/08/08 06:03:06;;;;;;;13.13;8.47;;;;;;;16.31;83.05;100454.00;4972820;28;20637;-78
2021/08/08 06:05:33;;;;;;;14.40;9.03;;;;;;;16.09;83.13;100454.25;4969428;28;20279;-77
2021/08/08 06:07:59;;;;;;;15.73;9.50;;;;;;;16.08;83.78;100457.22;4970260;28;20550;-78
2021/08/08 06:10:26;;;;;;;19.10;8.93;;;;;;;16.00;83.48;100458.56;4971291;28;20213;-77
2021/08/08 06:12:52;;;;;;;15.00;9.67;;;;;;;16.01;83.48;100454.81;4972742;28;20673;-78
2021/08/08 06:15:20;;;;;;;18.80;9.93;;;;;;;16.07;83.39;100461.00;4972245;28;20288;-77
2021/08/08 06:17:47;;;;;;;17.87;10.30;;;;;;;15.97;83.46;100482.53;4971828;28;20245;-78
2021/08/08 06:20:13;;;;;;;15.50;9.40;;;;;;;16.00;82.97;100468.53;4968955;28;20241;-77
2021/08/08 06:22:40;;;;;;;17.83;9.50;;;;;;;16.27;82.34;100482.59;4968116;28;21186;-78
2021/08/08 06:25:07;;;;;;;16.57;9.87;;;;;;;16.22;82.36;100481.75;4969236;28;20293;-78
2021/08/08 06:27:34;;;;;;;17.57;10.00;;;;;;;16.36;81.52;100491.72;4970766;28;20232;-78
2021/08/08 06:30:00;;;;;;;21.90;9.40;;;;;;;16.23;82.06;100481.50;4970199;28;20209;-78
2021/08/08 06:32:28;;;;;;;15.83;9.57;;;;;;;16.40;81.57;100482.06;4971102;28;20216;-78
2021/08/08 06:34:54;;;;;;;19.23;9.67;;;;;;;16.52;81.35;100481.78;4971122;28;20282;-77
2021/08/08 06:37:21;;;;;;;17.50;9.00;;;;;;;16.34;81.25;100490.41;4971810;28;20621;-78
2021/08/08 06:39:47;;;;;;;19.53;9.90;;;;;;;16.38;81.91;100497.66;4973512;28;20286;-78
2021/08/08 06:42:13;;;;;;;15.93;8.30;;;;;;;16.56;80.52;100503.63;4972114;28;20875;-77
2021/08/08 06:44:40;;;;;;;20.10;7.40;;;;;;;16.49;80.57;100510.06;4972728;28;20268;-78
2021/08/08 06:47:06;;;;;;;16.73;8.27;;;;;;;16.65;80.14;100515.47;4973402;28;20216;-78
2021/08/08 06:49:34;;;;;;;12.83;6.47;;;;;;;16.74;79.09;100514.69;4972463;28;20250;-78
2021/08/08 06:52:00;;;;;;;11.93;6.33;;;;;;;16.86;79.27;100521.69;4973520;28;20266;-78
2021/08/08 06:54:27;;;;;;;13.70;6.87;;;;;;;17.06;78.43;100511.66;4977206;28;20229;-78
2021/08/08 06:56:54;;;;;;;13.57;6.87;;;;;;;17.11;78.24;100531.63;4972556;28;20260;-80
2021/08/08 06:59:20;;;;;;;15.80;6.40;;;;;;;17.29;78.11;100528.34;4973773;28;20247;-79
2021/08/08 07:01:47;;;;;;;11.77;6.17;;;;;;;16.98;78.58;100533.00;4973766;28;20260;-78
2021/08/08 07:04:13;;;;;;;13.50;6.27;;;;;;;16.69;78.62;100528.19;4970744;28;20233;-78
2021/08/08 07:06:41;;;;;;;11.93;6.50;;;;;;;16.56;80.04;100542.19;4976692;28;20233;-79
2021/08/08 07:09:09;;;;;;;16.70;6.20;;;;;;;16.46;80.49;100545.69;4972650;28;20232;-80
2021/08/08 07:11:37;;;;;;;12.03;6.10;;;;;;;16.41;79.79;100550.28;4976352;28;20224;-77
2021/08/08 07:14:04;;;;;;;15.87;6.57;;;;;;;16.22;80.56;100549.16;4975584;28;20595;-80
2021/08/08 07:16:30;;;;;;;12.30;5.63;;;;;;;16.22;80.02;100541.88;4973392;28;20806;-78
2021/08/08 07:18:57;;;;;;;15.10;6.53;;;;;;;16.21;80.40;100553.72;4973756;28;20253;-78
2021/08/08 07:21:23;;;;;;;14.77;6.30;;;;;;;16.08;80.46;100549.66;4974822;28;20241;-79
2021/08/08 07:23:51;;;;;;;16.17;6.23;;;;;;;16.11;80.18;100554.53;4968568;28;20255;-80
2021/08/08 07:26:17;;;;;;;14.47;6.13;;;;;;;16.25;80.59;100562.09;4974465;28;20220;-79
2021/08/08 07:28:44;;;;;;;12.10;6.10;;;;;;;16.19;80.41;100569.38;4969957;28;20691;-79
2021/08/08 07:31:10;;;;;;;14.17;6.87;;;;;;;16.24;80.57;100569.38;4970738;28;20221;-80
2021/08/08 07:33:37;;;;;;;13.40;6.50;;;;;;;16.38;80.20;100565.06;4970027;28;20268;-79
2021/08/08 07:36:04;;;;;;;13.43;7.43;;;;;;;16.52;79.41;100569.97;4971415;28;20220;-79
2021/08/08 07:38:30;;;;;;;12.87;7.17;;;;;;;16.28;80.28;100580.44;4970946;28;20266;-79
2021/08/08 07:40:58;;;;;;;14.30;7.20;;;;;;;15.96;81.75;100581.44;4972212;28;20220;-79
2021/08/08 07:43:27;;;;;;;16.87;8.23;;;;;;;15.80;83.03;100585.16;4972523;28;20213;-79
2021/08/08 07:45:54;;;;;;;14.30;8.00;;;;;;;15.57;84.63;100597.13;4977696;28;20220;-79
2021/08/08 07:48:23;;;;;;;17.00;9.23;;;;;;;15.57;84.98;100597.94;4982607;28;20371;-79
2021/08/08 07:50:49;;;;;;;18.97;9.47;;;;;;;15.58;84.41;100604.94;4977274;28;21325;-77
2021/08/08 07:53:16;;;;;;;19.23;9.33;;;;;;;15.62;84.68;100610.63;4973962;28;20237;-78
2021/08/08 07:55:42;;;;;;;21.03;10.93;;;;;;;15.79;84.45;100605.09;4973028;28;20261;-78
2021/08/08 07:58:10;;;;;;;19.03;10.10;;;;;;;16.02;83.63;100606.53;4970727;28;20718;-78
2021/08/08 08:00:36;;;;;;;26.30;11.30;;;;;;;16.08;83.56;100606.25;4969095;28;20230;-78
2021/08/08 08:03:03;;;;;;;21.00;8.77;;;;;;;16.00;83.35;100628.31;4969756;28;20264;-79
2021/08/08 08:05:29;;;;;;;20.60;8.07;;;;;;;16.23;82.33;100610.88;4970673;28;20233;-79
2021/08/08 08:07:56;;;;;;;17.03;8.53;;;;;;;16.62;80.66;100618.50;4972038;28;20208;-78
2021/08/08 08:10:22;;;;;;;18.33;8.37;;;;;;;17.17;79.24;100620.44;4970684;28;20226;-79
2021/08/08 08:12:49;;;;;;;14.93;7.53;;;;;;;16.99;79.54;100627.19;4970879;28;20223;-79
2021/08/08 08:15:16;;;;;;;20.53;8.27;;;;;;;16.75;80.39;100632.31;4971247;28;20233;-78
2021/08/08 08:17:43;;;;;;;20.37;7.97;;;;;;;16.80;78.42;100617.22;4968999;28;20221;-78
2021/08/08 08:20:11;;;;;;;18.60;7.63;;;;;;;17.02;78.64;100628.53;4974097;28;20647;-78
2021/08/08 08:22:38;;;;;;;21.33;7.93;;;;;;;17.06;76.94;100616.13;4983164;28;20218;-78
2021/08/08 08:25:10;;;;;;;21.33;9.20;;;;;;;16.90;77.28;100625.31;4979388;28;20225;-78
2021/08/08 08:27:39;;;;;;;20.77;8.93;;;;;;;17.10;76.49;100646.88;4984050;28;20218;-78
2021/08/08 08:30:06;;;;;;;19.43;7.30;;;;;;;17.22;75.84;100636.63;4969591;28;20224;-79
2021/08/08 08:32:34;;;;;;;18.03;8.53;;;;;;;17.16;76.88;100655.81;4969057;28;20210;-78
2021/08/08 08:35:02;;;;;;;12.87;7.10;;;;;;;17.02;74.98;100631.22;4965303;28;20226;-77
2021/08/08 08:37:29;;;;;;;21.37;8.03;;;;;;;17.04;75.80;100653.38;4966010;28;20267;-76
2021/08/08 08:39:55;;;;;;;20.40;8.73;;;;;;;17.26;74.50;100643.09;4967837;28;20230;-77
2021/08/08 08:42:22;;;;;;;14.23;7.00;;;;;;;17.26;73.53;100639.56;4965535;28;20288;-77
2021/08/08 08:44:50;;;;;;;15.23;7.43;;;;;;;17.41;74.50;100647.69;4965541;28;20217;-77
2021/08/08 08:47:17;;;;;;;15.20;6.67;;;;;;;17.52;73.34;100643.03;4968589;28;20737;-77
2021/08/08 08:49:47;;;;;;;20.40;7.77;;;;;;;17.65;73.38;100650.56;4966622;28;20235;-77
2021/08/08 08:52:14;;;;;;;19.30;6.80;;;;;;;18.14;71.84;100649.91;4966604;28;20334;-78
2021/08/08 08:54:41;;;;;;;19.13;6.70;;;;;;;18.40;70.77;100661.41;4966365;28;20224;-77
2021/08/08 08:57:07;;;;;;;16.50;6.50;;;;;;;18.34;69.55;100662.53;4967330;28;20247;-77
2021/08/08 08:59:34;;;;;;;19.03;6.90;;;;;;;18.66;69.30;100643.13;4966556;28;20280;-77
2021/08/08 09:02:00;;;;;;;14.73;6.00;;;;;;;18.15;69.42;100659.63;4965169;28;20642;-77
2021/08/08 09:04:27;;;;;;;20.57;6.73;;;;;;;18.38;69.28;100663.56;4964208;28;20778;-77
2021/08/08 09:06:54;;;;;;;16.00;6.23;;;;;;;17.85;68.92;100674.88;4966218;28;20222;-78
2021/08/08 09:09:21;;;;;;;17.97;6.60;;;;;;;18.10;68.01;100682.09;4967561;28;20220;-77
2021/08/08 09:11:48;;;;;;;19.17;6.50;;;;;;;18.20;68.14;100679.34;4969707;28;20295;-77
2021/08/08 09:14:16;;;;;;;10.90;5.93;;;;;;;18.11;66.40;100678.31;4969020;28;20324;-80
2021/08/08 09:16:44;;;;;;;11.20;5.57;;;;;;;18.44;66.18;100679.50;4969564;28;20267;-79
2021/08/08 09:19:17;;;;;;;15.47;6.07;;;;;;;18.73;66.46;100685.03;4966856;28;20775;-78
2021/08/08 09:21:45;;;;;;;11.93;6.30;;;;;;;18.57;65.74;100697.03;4966863;28;20301;-76
2021/08/08 09:24:22;;;;;;;13.33;5.77;;;;;;;18.81;65.62;100697.19;4968643;28;20263;-77
2021/08/08 09:26:49;;;;;;;11.10;5.73;;;;;;;18.68;66.82;100698.63;4967849;28;20229;-78
2021/08/08 09:29:18;;;;;;;14.73;6.10;;;;;;;19.01;64.24;100707.84;4967727;28;20224;-78
2021/08/08 09:31:46;;;;;;;11.30;4.90;;;;;;;18.74;63.41;100710.22;4966521;28;20214;-78
2021/08/08 09:34:23;;;;;;;11.80;4.70;;;;;;;18.53;65.52;100713.00;4966159;28;20641;-77
2021/08/08 09:36:49;;;;;;;12.40;5.73;;;;;;;18.48;64.90;100720.34;4969320;28;20614;-77
2021/08/08 09:39:27;;;;;;;11.47;5.60;;;;;;;18.17;65.95;100722.38;4970364;28;20245;-78
2021/08/08 09:42:07;;;;;;;14.97;6.83;;;;;;;18.17;67.51;100738.59;4971225;28;20220;-78
2021/08/08 09:44:34;;;;;;;11.70;5.90;;;;;;;17.98;67.23;100749.19;4971427;28;20216;-77
2021/08/08 09:47:00;;;;;;;12.73;6.33;;;;;;;17.64;68.19;100748.94;4968977;28;20625;-77
2021/08/08 09:49:26;;;;;;;14.17;6.97;;;;;;;17.02;72.99;100761.63;4971153;28;20234;-78
2021/08/08 09:51:54;;;;;;;15.13;7.83;;;;;;;16.53;75.99;100773.88;4971659;28;20361;-78
2021/08/08 09:54:21;;;;;;;13.93;8.10;;;;;;;16.05;78.68;100781.16;4976562;28;20221;-77
2021/08/08 09:57:01;;;;;;;22.57;9.47;;;;;;;15.90;81.49;100776.50;4974137;28;20250;-77
2021/08/08 09:59:27;;;;;;;17.50;10.17;;;;;;;16.00;80.84;100765.75;4983519;28;20221;-77
2021/08/08 10:01:53;;;;;;;15.10;9.33;;;;;;;16.23;79.25;100769.13;4975020;28;20213;-76
2021/08/08 10:04:20;;;;;;;17.70;10.43;;;;;;;16.57;79.49;100772.25;4971715;28;20746;-77
2021/08/08 10:06:46;;;;;;;15.40;10.33;;;;;;;17.16;78.26;100772.72;4969801;28;20275;-77
2021/08/08 10:09:13;;;;;;;15.97;8.37;;;;;;;17.36;76.86;100755.69;4969725;28;20206;-78
2021/08/08 10:11:43;;;;;;;17.00;8.60;;;;;;;17.58;74.78;100761.66;4968912;28;20797;-77
2021/08/08 10:14:11;;;;;;;19.33;8.40;;;;;;;17.69;74.01;100767.09;4971599;28;20215;-77
2021/08/08 10:16:41;;;;;;;15.53;7.20;;;;;;;17.72;72.81;100772.75;4969601;28;20215;-78
2021/08/08 10:19:08;;;;;;;12.43;6.60;;;;;;;17.78;72.77;100763.53;4972985;28;20718;-77
2021/08/08 10:21:38;;;;;;;17.30;7.23;;;;;;;17.42;70.86;100775.44;4970072;28;20215;-78
2021/08/08 10:24:06;;;;;;;13.23;6.47;;;;;;;17.35;71.12;100784.59;4971147;28;20296;-78
2021/08/08 10:26:34;;;;;;;16.03;4.97;;;;;;;17.14;71.74;100790.22;4969267;28;20258;-77
2021/08/08 10:29:01;;;;;;;13.93;5.37;;;;;;;17.03;71.90;100790.25;4971260;28;20734;-78
2021/08/08 10:31:31;;;;;;;14.17;6.40;;;;;;;17.12;71.12;100795.91;4966541;28;20241;-78
2021/08/08 10:33:59;;;;;;;16.00;6.00;;;;;;;17.35;70.93;100800.81;4970232;28;21021;-77
2021/08/08 10:36:27;;;;;;;14.37;5.57;;;;;;;17.47;69.82;100807.84;4969314;28;20619;-78
2021/08/08 10:38:55;;;;;;;11.53;5.30;;;;;;;17.56;69.32;100812.44;4970608;28;20233;-78
2021/08/08 10:41:21;;;;;;;13.07;6.17;;;;;;;17.39;69.01;100795.66;4969325;28;20739;-78
2021/08/08 10:43:48;;;;;;;18.47;5.70;;;;;;;17.45;69.44;100818.09;4970707;28;20223;-79
2021/08/08 10:46:16;;;;;;;13.43;5.90;;;;;;;17.63;69.56;100818.38;4972825;28;21170;-79
2021/08/08 10:48:45;;;;;;;11.47;5.40;;;;;;;17.98;68.00;100810.56;4974531;28;20231;-79
2021/08/08 10:51:20;;;;;;;15.17;5.93;;;;;;;18.28;67.32;100812.38;4973932;28;20234;-77
2021/08/08 10:53:59;;;;;;;14.53;5.57;;;;;;;18.59;66.21;100797.66;4970144;28;20242;-79
2021/08/08 10:56:25;;;;;;;11.37;5.20;;;;;;;18.91;65.49;100812.69;4973575;28;20325;-79
2021/08/08 10:58:52;;;;;;;18.33;4.90;;;;;;;18.48;62.62;100794.19;4972223;28;20212;-79
2021/08/08 11:01:19;;;;;;;15.07;5.07;;;;;;;18.57;62.63;100797.16;4969944;28;20242;-78
2021/08/08 11:03:55;;;;;;;13.30;5.43;;;;;;;18.63;63.61;100806.84;4968565;28;20231;-76
2021/08/08 11:06:22;;;;;;;16.37;5.47;;;;;;;18.77;63.96;100804.38;4971492;28;20320;-78
2021/08/08 11:08:52;;;;;;;11.23;4.90;;;;;;;19.59;61.93;100799.28;4968113;28;20616;-78
2021/08/08 11:11:22;;;;;;;16.27;4.77;;;;;;;19.92;61.90;100803.84;4971264;28;20627;-79
2021/08/08 11:13:49;;;;;;;13.13;4.13;;;;;;;20.11;57.94;100782.25;4971314;28;20541;-77